x

Yucatan Basin - 120 Nm Ese Of Cozumel, Mx (42056) Wave Buoy

6:50 - Tue 30th Sep 2014 All times are CDT. -5 hours from GMT.

  • Sig Wave height 1.0ft
  • Swell Direction
  • Peak Period 4s
  • Average Period 4s
  • Wind
    9mph, 11mph gusts
  • Sea Temp 86°f
  • Ar Temp 84°f
  • Sea Pressure 1010.9mb
  •  Yucatan Basin - 120 Nm Ese Of Cozumel, Mx
  •  Yucatan Basin - 120 Nm Ese Of Cozumel, Mx

More Historic Weather Station data

Upgrade to MSW Pro to gain access to the past 30 days of data for over 8000 Wavebouys and Weather Stations around the globe.

Join Pro

Comparision Forecast

View Surf forecast
   
Ter 09/30 6:50 1ft 4s 4s 9 11 mph 1010.9mb 86f 84f
5:50 1ft 5s 4s 9 11 mph 1010.4mb 86f 84f
4:50 1ft 6s 4s 9 11 mph 1010mb 86f 84f
3:50 1ft 5s 4s 9 11 mph 1010mb 86f 84f
2:50 1ft 5s 4s 11 13 mph 1010.2mb 86f 84f
1:50 1.3ft 5s 4s 11 13 mph 1010.4mb 86f 84f
12:50 1ft 5s 4s 11 13 mph 1010.9mb 86f 84f
Seg 09/29 11:50 1ft 5s 4s 9 11 mph 1011.2mb 86f 84f
10:50 1.3ft 5s 4s 11
mph
1011.2mb 86f 84f
9:50 1.3ft 5s 4s 9 11 mph 1011.3mb 86f 84f
8:50 1.3ft 6s 4s 9 11 mph 1010.9mb 86f 84f
7:50 1.3ft 5s 4s 9 11 mph 1010.3mb 86f 84f
6:50 1.3ft 5s 4s 4 9 mph 1010mb 86f 83f
5:50 1.3ft 6s 4s 7 9 mph 1009.6mb 87f 85f
4:50 1.3ft 5s 4s 9 11 mph 1009.3mb 87f 85f
3:50 1.3ft 5s 4s 9
mph
1009.3mb 87f 85f
2:50 1.3ft 5s 4s 9
mph
1009.6mb 87f 85f
1:50 1.3ft 6s 4s 9 11 mph 1010.1mb 87f 84f
12:50 1.3ft 5s 4s 7 9 mph 1011mb 87f 84f
11:50 1.3ft 6s 4s 9 11 mph 1011.6mb 87f 84f
10:50 1.3ft 6s 4s 7 9 mph 1011.7mb 86f 84f
9:50 1.6ft 6s 4s 7 9 mph 1011.6mb 86f 84f
8:50 1.3ft 6s 4s 7
mph
1011.4mb 85f 84f
7:50 1.3ft 6s 4s 4 7 mph 1011.4mb 85f 84f
6:50 1.3ft 6s 4s 4 7 mph 1010.9mb 84f 83f
5:50 1.3ft 5s 4s 7 9 mph 1010.4mb 84f 84f
4:50 1.3ft 6s 4s 7 9 mph 1009.9mb 84f 84f
3:50 1.6ft 5s 4s 9 11 mph 1009.7mb 84f 84f
2:50 1.6ft 6s 4s 7 9 mph 1010.1mb 84f 83f
1:50 1.6ft 5s 4s 7
mph
1010.8mb 84f 83f
12:50 1.6ft 5s 4s 9 11 mph 1011.3mb 84f 83f
Dom 09/28 11:50 2ft 5s 4s 11
mph
1011.6mb 84f 84f
9:50 2ft 6s 4s 11
mph
1011.7mb 85f 84f
8:50 1.6ft 5s 4s 11
mph
1011.2mb 85f 84f
7:50 2ft 6s 4s 9 11 mph 1010.5mb 85f 85f
6:50 1.6ft 6s 4s 11 13 mph 1009.9mb 85f 84f
5:50 2ft 6s 4s 11 13 mph 1009.7mb 85f 85f
4:50 1.6ft 6s 4s 9 11 mph 1009.5mb 85f 85f
3:50 2ft 6s 5s 11 13 mph 1009.7mb 85f 84f
2:50 2ft 5s 4s 11 13 mph 1009.9mb 85f 84f
1:50 2ft 6s 4s 11 13 mph 1010.7mb 85f 84f
12:50 2.5ft 6s 5s 11 13 mph 1011.2mb 85f 84f
11:50 2.5ft 6s 5s 9 11 mph 1011.9mb 85f 84f
10:50 3ft 6s 5s 9 11 mph 1012.3mb 84f 84f
9:50 3ft 6s 5s 9 11 mph 1012.4mb 84f 84f
8:50 2.5ft 6s 5s 7 9 mph 1012mb 84f 84f
7:50 2ft 7s 5s 9 11 mph 1011.4mb 84f 84f
6:50 2ft 7s 5s 9 11 mph 1011.1mb 84f 84f
5:50 2ft 7s 5s 9 11 mph 1010.6mb 84f 83f
4:50 1.6ft 7s 5s 7 9 mph 1010.1mb 84f 83f
3:50 1.6ft 7s 5s 9 11 mph 1009.8mb 84f 83f
2:50 1.6ft 7s 5s 9 11 mph 1010.3mb 84f 84f
1:50 1.6ft 7s 5s 9
mph
1010.7mb 84f 84f
12:50 1.6ft 8s 5s 9 11 mph 1011.1mb 84f 84f
Sáb 09/27 11:50 1.6ft 7s 5s 11
mph
1011.7mb 84f 84f
10:50 1.6ft 7s 5s 11 13 mph 1011.8mb 84f 84f
9:50 1.6ft 8s 5s 11 13 mph 1011.3mb 85f 84f
8:50 1.6ft 8s 5s 9 11 mph 1010.6mb 85f 84f
7:50 1.6ft 7s 5s 11 13 mph 1010.1mb 85f 84f
6:50 1.6ft 7s 5s 11 13 mph 1009.2mb 85f 84f
5:50 1.6ft 8s 5s 13
mph
1008.6mb 86f 84f
4:50 1.6ft 7s 5s 11 13 mph 1008.4mb 86f 85f
3:50 1.6ft 7s 5s 9 11 mph 1008.8mb 86f 84f
2:50 1.6ft 7s 5s 9 11 mph 1009.2mb 86f 84f
1:50 1.3ft 8s 5s 11
mph
1010mb 86f 84f
12:50 1.6ft 7s 5s 9 11 mph 1010.4mb 86f 84f
11:50 1.6ft 8s 4s 9 11 mph 1011.1mb 86f 84f
10:50 1.6ft 7s 4s 7 9 mph 1011.4mb 85f 83f
9:50 1.6ft 7s 4s 11
mph
1011.8mb 85f 83f
8:50 1.6ft 8s 4s 7 9 mph 1011.5mb 84f 83f
7:50 1.6ft 6s 4s 2 4 mph 1011.1mb 83f 80f
6:50 2ft 7s 4s 7 13 mph 1011.4mb 84f 79f
5:50 2ft 7s 4s 9 11 mph 1010.5mb 84f 82f
4:50 2ft 7s 4s 4 7 mph 1010.4mb 84f 81f
3:50 1.6ft 7s 4s 9 16 mph 1010.1mb 84f 80f
2:50 2ft 7s 4s 4 7 mph 1010.6mb 84f 81f
1:50 1.6ft 6s 4s 20 25 mph 1010.6mb 84f 81f
12:50 2ft 6s 4s 11 13 mph 1010.9mb 84f 84f
Sex 09/26 11:50 1.6ft 5s 4s 11 13 mph 1011.1mb 84f 84f
10:50 2ft 5s 4s 11 13 mph 1011.5mb 84f 83f
9:50 2ft 8s 5s 9 11 mph 1011.5mb 84f 83f
8:50 2ft 7s 5s 11 13 mph 1010.5mb 84f 83f
7:50 2ft 6s 4s 9 11 mph 1009.6mb 84f 83f
6:50 2ft 5s 4s 9 11 mph 1009.6mb 84f 83f
5:50 2ft 8s 5s 9 11 mph 1009mb 84f 83f
4:50 2ft 7s 4s 9 11 mph 1008.9mb 84f 83f
3:50 2ft 5s 4s 9 11 mph 1009mb 84f 83f
2:50 2.5ft 5s 4s 11 13 mph 1009.9mb 84f 82f
1:50 2.5ft 5s 4s 11 13 mph 1010.9mb 84f 82f